sensor_id;sensor_type;location;lat;lon;timestamp;P1;durP1;ratioP1;P2;durP2;ratioP2
16228;SDS011;8222;51.462;12.630;2022-08-07T00:01:05;1.50;;;1.40;;
16228;SDS011;8222;51.462;12.630;2022-08-07T00:03:31;3.53;;;1.60;;
16228;SDS011;8222;51.462;12.630;2022-08-07T00:05:57;1.50;;;1.40;;
16228;SDS011;8222;51.462;12.630;2022-08-07T00:08:23;1.48;;;1.38;;
16228;SDS011;8222;51.462;12.630;2022-08-07T00:10:49;1.80;;;1.70;;
16228;SDS011;8222;51.462;12.630;2022-08-07T00:13:16;1.95;;;1.50;;
16228;SDS011;8222;51.462;12.630;2022-08-07T00:15:43;1.83;;;1.73;;
16228;SDS011;8222;51.462;12.630;2022-08-07T00:18:09;1.85;;;1.70;;
16228;SDS011;8222;51.462;12.630;2022-08-07T00:20:35;1.97;;;1.77;;
16228;SDS011;8222;51.462;12.630;2022-08-07T00:23:02;1.90;;;1.70;;
16228;SDS011;8222;51.462;12.630;2022-08-07T00:25:31;1.70;;;1.60;;
16228;SDS011;8222;51.462;12.630;2022-08-07T00:27:57;1.70;;;1.50;;
16228;SDS011;8222;51.462;12.630;2022-08-07T00:30:22;1.80;;;1.70;;
16228;SDS011;8222;51.462;12.630;2022-08-07T00:32:49;1.58;;;1.38;;
16228;SDS011;8222;51.462;12.630;2022-08-07T00:35:16;1.60;;;1.50;;
16228;SDS011;8222;51.462;12.630;2022-08-07T00:37:43;2.47;;;2.28;;
16228;SDS011;8222;51.462;12.630;2022-08-07T00:40:09;2.58;;;2.08;;
16228;SDS011;8222;51.462;12.630;2022-08-07T00:42:36;2.88;;;2.53;;
16228;SDS011;8222;51.462;12.630;2022-08-07T00:45:02;2.47;;;2.28;;
16228;SDS011;8222;51.462;12.630;2022-08-07T00:47:31;2.65;;;2.45;;
16228;SDS011;8222;51.462;12.630;2022-08-07T00:49:57;2.80;;;2.40;;
16228;SDS011;8222;51.462;12.630;2022-08-07T00:52:22;2.57;;;2.37;;
16228;SDS011;8222;51.462;12.630;2022-08-07T00:54:48;3.00;;;2.70;;
16228;SDS011;8222;51.462;12.630;2022-08-07T00:57:17;4.00;;;2.67;;
16228;SDS011;8222;51.462;12.630;2022-08-07T00:59:43;3.10;;;2.75;;
16228;SDS011;8222;51.462;12.630;2022-08-07T01:02:09;2.30;;;2.20;;
16228;SDS011;8222;51.462;12.630;2022-08-07T01:04:42;2.50;;;2.40;;
16228;SDS011;8222;51.462;12.630;2022-08-07T01:07:08;2.63;;;2.42;;
16228;SDS011;8222;51.462;12.630;2022-08-07T01:09:34;2.60;;;2.40;;
16228;SDS011;8222;51.462;12.630;2022-08-07T01:12:00;2.67;;;2.47;;
16228;SDS011;8222;51.462;12.630;2022-08-07T01:14:26;3.05;;;2.35;;
16228;SDS011;8222;51.462;12.630;2022-08-07T01:16:52;2.40;;;2.20;;
16228;SDS011;8222;51.462;12.630;2022-08-07T01:19:19;2.60;;;2.28;;
16228;SDS011;8222;51.462;12.630;2022-08-07T01:21:47;2.40;;;2.30;;
16228;SDS011;8222;51.462;12.630;2022-08-07T01:24:15;2.50;;;2.30;;
16228;SDS011;8222;51.462;12.630;2022-08-07T01:26:42;2.28;;;2.08;;
16228;SDS011;8222;51.462;12.630;2022-08-07T01:29:07;2.50;;;2.30;;
16228;SDS011;8222;51.462;12.630;2022-08-07T01:31:35;2.23;;;2.13;;
16228;SDS011;8222;51.462;12.630;2022-08-07T01:34:02;2.25;;;2.10;;
16228;SDS011;8222;51.462;12.630;2022-08-07T01:36:29;2.47;;;2.28;;
16228;SDS011;8222;51.462;12.630;2022-08-07T01:38:56;2.67;;;2.47;;
16228;SDS011;8222;51.462;12.630;2022-08-07T01:41:22;2.72;;;2.53;;
16228;SDS011;8222;51.462;12.630;2022-08-07T01:43:49;2.65;;;2.42;;
16228;SDS011;8222;51.462;12.630;2022-08-07T01:46:15;3.10;;;2.90;;
16228;SDS011;8222;51.462;12.630;2022-08-07T01:48:42;2.63;;;2.53;;
16228;SDS011;8222;51.462;12.630;2022-08-07T01:51:10;2.90;;;2.70;;
16228;SDS011;8222;51.462;12.630;2022-08-07T01:53:38;3.30;;;2.85;;
16228;SDS011;8222;51.462;12.630;2022-08-07T01:56:09;3.70;;;3.40;;
16228;SDS011;8222;51.462;12.630;2022-08-07T01:58:41;3.30;;;3.10;;
16228;SDS011;8222;51.462;12.630;2022-08-07T02:01:13;3.30;;;3.10;;
16228;SDS011;8222;51.462;12.630;2022-08-07T02:03:44;3.40;;;3.10;;
16228;SDS011;8222;51.462;12.630;2022-08-07T02:06:16;4.13;;;3.83;;
16228;SDS011;8222;51.462;12.630;2022-08-07T02:08:45;4.10;;;3.80;;
16228;SDS011;8222;51.462;12.630;2022-08-07T02:11:11;4.30;;;4.00;;
16228;SDS011;8222;51.462;12.630;2022-08-07T02:13:37;5.07;;;4.65;;
16228;SDS011;8222;51.462;12.630;2022-08-07T02:16:05;4.50;;;4.20;;
16228;SDS011;8222;51.462;12.630;2022-08-07T02:18:34;4.88;;;4.47;;
16228;SDS011;8222;51.462;12.630;2022-08-07T02:21:02;4.25;;;3.92;;
16228;SDS011;8222;51.462;12.630;2022-08-07T02:23:30;4.00;;;3.70;;
16228;SDS011;8222;51.462;12.630;2022-08-07T02:25:59;4.03;;;3.73;;
16228;SDS011;8222;51.462;12.630;2022-08-07T02:28:27;4.30;;;3.90;;
16228;SDS011;8222;51.462;12.630;2022-08-07T02:30:55;4.20;;;3.90;;
16228;SDS011;8222;51.462;12.630;2022-08-07T02:33:23;3.95;;;3.65;;
16228;SDS011;8222;51.462;12.630;2022-08-07T02:35:50;3.50;;;3.20;;
16228;SDS011;8222;51.462;12.630;2022-08-07T02:38:17;4.00;;;3.65;;
16228;SDS011;8222;51.462;12.630;2022-08-07T02:40:44;3.30;;;3.10;;
16228;SDS011;8222;51.462;12.630;2022-08-07T02:43:11;3.40;;;3.20;;
16228;SDS011;8222;51.462;12.630;2022-08-07T02:45:39;3.92;;;3.53;;
16228;SDS011;8222;51.462;12.630;2022-08-07T02:48:07;3.45;;;3.25;;
16228;SDS011;8222;51.462;12.630;2022-08-07T02:50:33;3.22;;;3.03;;
16228;SDS011;8222;51.462;12.630;2022-08-07T02:53:04;3.72;;;3.10;;
16228;SDS011;8222;51.462;12.630;2022-08-07T02:55:32;3.63;;;3.40;;
16228;SDS011;8222;51.462;12.630;2022-08-07T02:58:02;3.33;;;3.10;;
16228;SDS011;8222;51.462;12.630;2022-08-07T03:00:32;3.40;;;3.17;;
16228;SDS011;8222;51.462;12.630;2022-08-07T03:02:59;3.13;;;2.92;;
16228;SDS011;8222;51.462;12.630;2022-08-07T03:05:28;3.58;;;3.25;;
16228;SDS011;8222;51.462;12.630;2022-08-07T03:07:55;3.58;;;3.38;;
16228;SDS011;8222;51.462;12.630;2022-08-07T03:10:22;3.92;;;3.30;;
16228;SDS011;8222;51.462;12.630;2022-08-07T03:12:48;3.10;;;2.90;;
16228;SDS011;8222;51.462;12.630;2022-08-07T03:15:15;3.22;;;3.03;;
16228;SDS011;8222;51.462;12.630;2022-08-07T03:17:42;3.03;;;2.80;;
16228;SDS011;8222;51.462;12.630;2022-08-07T03:20:08;3.00;;;2.80;;
16228;SDS011;8222;51.462;12.630;2022-08-07T03:22:34;3.00;;;2.80;;
16228;SDS011;8222;51.462;12.630;2022-08-07T03:25:02;3.10;;;2.90;;
16228;SDS011;8222;51.462;12.630;2022-08-07T03:27:28;3.33;;;2.80;;
16228;SDS011;8222;51.462;12.630;2022-08-07T03:29:54;3.25;;;3.05;;
16228;SDS011;8222;51.462;12.630;2022-08-07T03:32:23;2.97;;;2.77;;
16228;SDS011;8222;51.462;12.630;2022-08-07T03:34:53;2.95;;;2.75;;
16228;SDS011;8222;51.462;12.630;2022-08-07T03:37:23;3.05;;;2.83;;
16228;SDS011;8222;51.462;12.630;2022-08-07T03:39:49;3.08;;;2.88;;
16228;SDS011;8222;51.462;12.630;2022-08-07T03:42:16;2.67;;;2.45;;
16228;SDS011;8222;51.462;12.630;2022-08-07T03:44:42;3.10;;;2.90;;
16228;SDS011;8222;51.462;12.630;2022-08-07T03:47:09;3.10;;;2.90;;
16228;SDS011;8222;51.462;12.630;2022-08-07T03:49:36;2.67;;;2.50;;
16228;SDS011;8222;51.462;12.630;2022-08-07T03:52:02;2.92;;;2.72;;
16228;SDS011;8222;51.462;12.630;2022-08-07T03:54:29;3.15;;;2.90;;
16228;SDS011;8222;51.462;12.630;2022-08-07T03:56:55;3.70;;;3.40;;
16228;SDS011;8222;51.462;12.630;2022-08-07T03:59:22;3.45;;;3.20;;
16228;SDS011;8222;51.462;12.630;2022-08-07T04:01:50;3.50;;;3.30;;
16228;SDS011;8222;51.462;12.630;2022-08-07T04:04:19;3.55;;;3.33;;
16228;SDS011;8222;51.462;12.630;2022-08-07T04:06:45;22.55;;;20.45;;
16228;SDS011;8222;51.462;12.630;2022-08-07T04:09:11;6.95;;;6.35;;
16228;SDS011;8222;51.462;12.630;2022-08-07T04:11:37;7.32;;;6.63;;
16228;SDS011;8222;51.462;12.630;2022-08-07T04:14:03;3.33;;;3.10;;
16228;SDS011;8222;51.462;12.630;2022-08-07T04:16:30;3.40;;;3.10;;
16228;SDS011;8222;51.462;12.630;2022-08-07T04:18:57;4.00;;;3.70;;
16228;SDS011;8222;51.462;12.630;2022-08-07T04:21:23;3.40;;;3.20;;
16228;SDS011;8222;51.462;12.630;2022-08-07T04:23:49;3.80;;;3.50;;
16228;SDS011;8222;51.462;12.630;2022-08-07T04:26:16;4.10;;;3.80;;
16228;SDS011;8222;51.462;12.630;2022-08-07T04:28:42;4.20;;;3.90;;
16228;SDS011;8222;51.462;12.630;2022-08-07T04:31:08;4.68;;;4.28;;
16228;SDS011;8222;51.462;12.630;2022-08-07T04:33:37;4.32;;;4.03;;
16228;SDS011;8222;51.462;12.630;2022-08-07T04:36:04;4.60;;;4.30;;
16228;SDS011;8222;51.462;12.630;2022-08-07T04:38:35;4.43;;;4.10;;
16228;SDS011;8222;51.462;12.630;2022-08-07T04:41:01;4.07;;;3.78;;
16228;SDS011;8222;51.462;12.630;2022-08-07T04:43:29;3.92;;;3.63;;
16228;SDS011;8222;51.462;12.630;2022-08-07T04:49:17;4.07;;;3.58;;
16228;SDS011;8222;51.462;12.630;2022-08-07T04:54:46;3.15;;;2.95;;
16228;SDS011;8222;51.462;12.630;2022-08-07T05:00:12;3.37;;;3.17;;
16228;SDS011;8222;51.462;12.630;2022-08-07T05:05:42;2.88;;;2.67;;
16228;SDS011;8222;51.462;12.630;2022-08-07T05:10:44;3.13;;;2.92;;
16228;SDS011;8222;51.462;12.630;2022-08-07T05:13:13;3.28;;;3.08;;
16228;SDS011;8222;51.462;12.630;2022-08-07T05:15:43;3.28;;;3.08;;
16228;SDS011;8222;51.462;12.630;2022-08-07T05:20:48;3.28;;;2.97;;
16228;SDS011;8222;51.462;12.630;2022-08-07T05:23:20;3.10;;;2.90;;
16228;SDS011;8222;51.462;12.630;2022-08-07T05:25:49;3.00;;;2.80;;
16228;SDS011;8222;51.462;12.630;2022-08-07T05:28:17;3.22;;;3.03;;
16228;SDS011;8222;51.462;12.630;2022-08-07T05:30:44;3.78;;;3.47;;
16228;SDS011;8222;51.462;12.630;2022-08-07T05:33:11;3.58;;;3.38;;
16228;SDS011;8222;51.462;12.630;2022-08-07T05:35:39;3.47;;;3.28;;
16228;SDS011;8222;51.462;12.630;2022-08-07T05:38:06;4.05;;;3.65;;
16228;SDS011;8222;51.462;12.630;2022-08-07T05:40:34;5.25;;;4.22;;
16228;SDS011;8222;51.462;12.630;2022-08-07T05:43:02;3.83;;;3.63;;
16228;SDS011;8222;51.462;12.630;2022-08-07T05:45:28;4.25;;;3.97;;
16228;SDS011;8222;51.462;12.630;2022-08-07T05:47:54;4.47;;;4.18;;
16228;SDS011;8222;51.462;12.630;2022-08-07T05:50:21;3.97;;;3.72;;
16228;SDS011;8222;51.462;12.630;2022-08-07T05:52:48;4.60;;;4.27;;
16228;SDS011;8222;51.462;12.630;2022-08-07T05:55:13;4.27;;;4.07;;
16228;SDS011;8222;51.462;12.630;2022-08-07T05:57:39;4.70;;;4.40;;
16228;SDS011;8222;51.462;12.630;2022-08-07T06:00:06;4.47;;;4.07;;
16228;SDS011;8222;51.462;12.630;2022-08-07T06:02:35;4.60;;;4.30;;
16228;SDS011;8222;51.462;12.630;2022-08-07T06:05:04;5.43;;;5.03;;
16228;SDS011;8222;51.462;12.630;2022-08-07T06:07:32;4.70;;;4.40;;
16228;SDS011;8222;51.462;12.630;2022-08-07T06:09:59;5.00;;;4.70;;
16228;SDS011;8222;51.462;12.630;2022-08-07T06:12:25;4.93;;;4.47;;
16228;SDS011;8222;51.462;12.630;2022-08-07T06:14:53;4.85;;;4.55;;
16228;SDS011;8222;51.462;12.630;2022-08-07T06:17:19;5.25;;;4.75;;
16228;SDS011;8222;51.462;12.630;2022-08-07T06:19:46;4.25;;;4.05;;
16228;SDS011;8222;51.462;12.630;2022-08-07T06:22:12;4.03;;;3.80;;
16228;SDS011;8222;51.462;12.630;2022-08-07T06:24:40;4.93;;;4.47;;
16228;SDS011;8222;51.462;12.630;2022-08-07T06:27:06;4.00;;;3.70;;
16228;SDS011;8222;51.462;12.630;2022-08-07T06:29:31;4.43;;;4.13;;
16228;SDS011;8222;51.462;12.630;2022-08-07T06:32:00;3.83;;;3.60;;
16228;SDS011;8222;51.462;12.630;2022-08-07T06:34:26;4.43;;;4.13;;
16228;SDS011;8222;51.462;12.630;2022-08-07T06:36:52;3.50;;;3.30;;
16228;SDS011;8222;51.462;12.630;2022-08-07T06:39:19;3.22;;;3.03;;
16228;SDS011;8222;51.462;12.630;2022-08-07T06:41:53;3.10;;;2.90;;
16228;SDS011;8222;51.462;12.630;2022-08-07T06:44:25;4.43;;;2.63;;
16228;SDS011;8222;51.462;12.630;2022-08-07T06:46:52;2.88;;;2.67;;
16228;SDS011;8222;51.462;12.630;2022-08-07T06:49:18;3.47;;;2.57;;
16228;SDS011;8222;51.462;12.630;2022-08-07T06:51:43;2.72;;;2.60;;
16228;SDS011;8222;51.462;12.630;2022-08-07T06:54:12;2.33;;;2.22;;
16228;SDS011;8222;51.462;12.630;2022-08-07T06:56:39;2.40;;;1.90;;
16228;SDS011;8222;51.462;12.630;2022-08-07T06:59:14;2.35;;;1.77;;
16228;SDS011;8222;51.462;12.630;2022-08-07T07:01:46;2.03;;;1.93;;
16228;SDS011;8222;51.462;12.630;2022-08-07T07:04:12;2.80;;;2.60;;
16228;SDS011;8222;51.462;12.630;2022-08-07T07:06:39;3.30;;;1.83;;
16228;SDS011;8222;51.462;12.630;2022-08-07T07:14:28;2.42;;;1.80;;
16228;SDS011;8222;51.462;12.630;2022-08-07T07:16:59;1.75;;;1.65;;
16228;SDS011;8222;51.462;12.630;2022-08-07T07:19:36;2.55;;;1.50;;
16228;SDS011;8222;51.462;12.630;2022-08-07T07:22:08;2.33;;;1.58;;
16228;SDS011;8222;51.462;12.630;2022-08-07T07:24:34;1.58;;;1.40;;
16228;SDS011;8222;51.462;12.630;2022-08-07T07:27:02;1.90;;;1.50;;
16228;SDS011;8222;51.462;12.630;2022-08-07T07:29:31;2.38;;;1.50;;
16228;SDS011;8222;51.462;12.630;2022-08-07T07:32:02;2.22;;;1.50;;
16228;SDS011;8222;51.462;12.630;2022-08-07T07:34:31;2.42;;;1.35;;
16228;SDS011;8222;51.462;12.630;2022-08-07T07:36:59;1.98;;;1.20;;
16228;SDS011;8222;51.462;12.630;2022-08-07T07:39:27;2.10;;;1.45;;
16228;SDS011;8222;51.462;12.630;2022-08-07T07:41:54;1.55;;;1.40;;
16228;SDS011;8222;51.462;12.630;2022-08-07T07:44:21;1.90;;;1.30;;
16228;SDS011;8222;51.462;12.630;2022-08-07T07:46:48;1.38;;;1.27;;
16228;SDS011;8222;51.462;12.630;2022-08-07T07:49:15;1.40;;;1.15;;
16228;SDS011;8222;51.462;12.630;2022-08-07T07:51:43;2.00;;;1.40;;
16228;SDS011;8222;51.462;12.630;2022-08-07T07:54:11;1.40;;;1.10;;
16228;SDS011;8222;51.462;12.630;2022-08-07T07:56:39;1.20;;;1.10;;
16228;SDS011;8222;51.462;12.630;2022-08-07T07:59:07;2.65;;;1.50;;
16228;SDS011;8222;51.462;12.630;2022-08-07T08:01:34;2.90;;;1.50;;
16228;SDS011;8222;51.462;12.630;2022-08-07T08:04:05;1.02;;;0.93;;
16228;SDS011;8222;51.462;12.630;2022-08-07T08:06:32;1.00;;;0.90;;
16228;SDS011;8222;51.462;12.630;2022-08-07T08:09:00;1.33;;;1.23;;
16228;SDS011;8222;51.462;12.630;2022-08-07T08:11:28;2.17;;;1.00;;
16228;SDS011;8222;51.462;12.630;2022-08-07T08:13:55;1.10;;;1.05;;
16228;SDS011;8222;51.462;12.630;2022-08-07T08:16:34;1.63;;;1.15;;
16228;SDS011;8222;51.462;12.630;2022-08-07T08:19:07;2.00;;;1.10;;
16228;SDS011;8222;51.462;12.630;2022-08-07T08:21:36;0.85;;;0.82;;
16228;SDS011;8222;51.462;12.630;2022-08-07T08:24:25;2.13;;;1.00;;
16228;SDS011;8222;51.462;12.630;2022-08-07T08:27:14;1.67;;;0.90;;
16228;SDS011;8222;51.462;12.630;2022-08-07T08:32:20;0.98;;;0.70;;
16228;SDS011;8222;51.462;12.630;2022-08-07T08:34:51;0.75;;;0.73;;
16228;SDS011;8222;51.462;12.630;2022-08-07T08:37:18;0.85;;;0.85;;
16228;SDS011;8222;51.462;12.630;2022-08-07T08:39:45;1.00;;;0.90;;
16228;SDS011;8222;51.462;12.630;2022-08-07T08:42:26;1.20;;;0.85;;
16228;SDS011;8222;51.462;12.630;2022-08-07T08:45:02;0.70;;;0.60;;
16228;SDS011;8222;51.462;12.630;2022-08-07T08:47:57;1.00;;;0.80;;
16228;SDS011;8222;51.462;12.630;2022-08-07T08:50:44;1.00;;;0.88;;
16228;SDS011;8222;51.462;12.630;2022-08-07T08:55:57;1.00;;;0.70;;
16228;SDS011;8222;51.462;12.630;2022-08-07T08:58:33;2.03;;;0.80;;
16228;SDS011;8222;51.462;12.630;2022-08-07T09:01:12;0.65;;;0.65;;
16228;SDS011;8222;51.462;12.630;2022-08-07T09:06:38;0.90;;;0.90;;
16228;SDS011;8222;51.462;12.630;2022-08-07T09:11:44;0.77;;;0.73;;
16228;SDS011;8222;51.462;12.630;2022-08-07T09:17:09;1.40;;;0.93;;
16228;SDS011;8222;51.462;12.630;2022-08-07T09:25:09;1.23;;;1.13;;
16228;SDS011;8222;51.462;12.630;2022-08-07T09:30:23;2.35;;;1.05;;
16228;SDS011;8222;51.462;12.630;2022-08-07T09:33:05;1.50;;;1.10;;
16228;SDS011;8222;51.462;12.630;2022-08-07T09:35:46;0.70;;;0.70;;
16228;SDS011;8222;51.462;12.630;2022-08-07T09:41:15;1.02;;;0.60;;
16228;SDS011;8222;51.462;12.630;2022-08-07T09:47:08;1.35;;;0.98;;
16228;SDS011;8222;51.462;12.630;2022-08-07T09:49:54;1.25;;;1.00;;
16228;SDS011;8222;51.462;12.630;2022-08-07T09:53:00;0.80;;;0.80;;
16228;SDS011;8222;51.462;12.630;2022-08-07T10:15:00;0.70;;;0.70;;
16228;SDS011;8222;51.462;12.630;2022-08-07T10:17:50;0.63;;;0.63;;
16228;SDS011;8222;51.462;12.630;2022-08-07T10:31:55;1.20;;;0.60;;
16228;SDS011;8222;51.462;12.630;2022-08-07T10:42:45;1.00;;;0.70;;
16228;SDS011;8222;51.462;12.630;2022-08-07T10:45:38;1.00;;;0.70;;
16228;SDS011;8222;51.462;12.630;2022-08-07T10:48:14;0.68;;;0.68;;
16228;SDS011;8222;51.462;12.630;2022-08-07T10:51:02;0.80;;;0.60;;
16228;SDS011;8222;51.462;12.630;2022-08-07T10:53:35;0.93;;;0.80;;
16228;SDS011;8222;51.462;12.630;2022-08-07T11:01:56;0.65;;;0.60;;
16228;SDS011;8222;51.462;12.630;2022-08-07T11:12:23;0.90;;;0.70;;
16228;SDS011;8222;51.462;12.630;2022-08-07T11:15:12;0.80;;;0.57;;
16228;SDS011;8222;51.462;12.630;2022-08-07T11:17:44;0.57;;;0.57;;
16228;SDS011;8222;51.462;12.630;2022-08-07T11:25:34;0.65;;;0.65;;
16228;SDS011;8222;51.462;12.630;2022-08-07T11:28:24;0.60;;;0.60;;
16228;SDS011;8222;51.462;12.630;2022-08-07T11:30:58;1.45;;;0.90;;
16228;SDS011;8222;51.462;12.630;2022-08-07T11:33:40;1.00;;;0.60;;
16228;SDS011;8222;51.462;12.630;2022-08-07T11:39:14;0.80;;;0.80;;
16228;SDS011;8222;51.462;12.630;2022-08-07T11:41:58;0.65;;;0.60;;
16228;SDS011;8222;51.462;12.630;2022-08-07T12:04:08;1.25;;;0.70;;
16228;SDS011;8222;51.462;12.630;2022-08-07T12:07:00;0.70;;;0.60;;
16228;SDS011;8222;51.462;12.630;2022-08-07T12:09:47;0.85;;;0.70;;
16228;SDS011;8222;51.462;12.630;2022-08-07T12:12:25;0.90;;;0.90;;
16228;SDS011;8222;51.462;12.630;2022-08-07T12:15:00;0.63;;;0.63;;
16228;SDS011;8222;51.462;12.630;2022-08-07T12:17:38;1.15;;;0.68;;
16228;SDS011;8222;51.462;12.630;2022-08-07T12:30:56;0.63;;;0.60;;
16228;SDS011;8222;51.462;12.630;2022-08-07T12:33:28;1.52;;;0.80;;
16228;SDS011;8222;51.462;12.630;2022-08-07T12:35:56;2.00;;;0.60;;
16228;SDS011;8222;51.462;12.630;2022-08-07T12:38:23;0.80;;;0.60;;
16228;SDS011;8222;51.462;12.630;2022-08-07T12:40:50;0.60;;;0.60;;
16228;SDS011;8222;51.462;12.630;2022-08-07T12:43:18;0.80;;;0.68;;
16228;SDS011;8222;51.462;12.630;2022-08-07T12:46:07;0.80;;;0.73;;
16228;SDS011;8222;51.462;12.630;2022-08-07T12:51:17;1.10;;;0.90;;
16228;SDS011;8222;51.462;12.630;2022-08-07T12:56:41;1.20;;;0.80;;
16228;SDS011;8222;51.462;12.630;2022-08-07T12:59:10;0.70;;;0.70;;
16228;SDS011;8222;51.462;12.630;2022-08-07T13:01:57;0.63;;;0.63;;
16228;SDS011;8222;51.462;12.630;2022-08-07T13:10:43;0.60;;;0.60;;
16228;SDS011;8222;51.462;12.630;2022-08-07T13:22:00;1.08;;;0.73;;
16228;SDS011;8222;51.462;12.630;2022-08-07T13:24:41;0.80;;;0.80;;
16228;SDS011;8222;51.462;12.630;2022-08-07T13:29:55;0.70;;;0.70;;
16228;SDS011;8222;51.462;12.630;2022-08-07T13:37:32;0.90;;;0.90;;
16228;SDS011;8222;51.462;12.630;2022-08-07T13:42:55;0.80;;;0.77;;
16228;SDS011;8222;51.462;12.630;2022-08-07T13:45:26;0.70;;;0.70;;
16228;SDS011;8222;51.462;12.630;2022-08-07T13:47:54;1.15;;;0.70;;
16228;SDS011;8222;51.462;12.630;2022-08-07T13:50:22;0.77;;;0.68;;
16228;SDS011;8222;51.462;12.630;2022-08-07T13:52:49;1.20;;;0.70;;
16228;SDS011;8222;51.462;12.630;2022-08-07T13:55:18;0.75;;;0.75;;
16228;SDS011;8222;51.462;12.630;2022-08-07T13:57:46;0.82;;;0.80;;
16228;SDS011;8222;51.462;12.630;2022-08-07T14:00:16;0.82;;;0.82;;
16228;SDS011;8222;51.462;12.630;2022-08-07T14:02:43;1.83;;;0.82;;
16228;SDS011;8222;51.462;12.630;2022-08-07T14:05:13;0.80;;;0.80;;
16228;SDS011;8222;51.462;12.630;2022-08-07T14:07:44;0.80;;;0.80;;
16228;SDS011;8222;51.462;12.630;2022-08-07T14:10:12;1.10;;;0.80;;
16228;SDS011;8222;51.462;12.630;2022-08-07T14:12:54;3.50;;;0.80;;
16228;SDS011;8222;51.462;12.630;2022-08-07T14:18:02;1.10;;;0.80;;
16228;SDS011;8222;51.462;12.630;2022-08-07T14:20:33;1.70;;;0.88;;
16228;SDS011;8222;51.462;12.630;2022-08-07T14:23:04;0.82;;;0.82;;
16228;SDS011;8222;51.462;12.630;2022-08-07T14:25:33;3.75;;;0.90;;
16228;SDS011;8222;51.462;12.630;2022-08-07T14:28:02;0.80;;;0.80;;
16228;SDS011;8222;51.462;12.630;2022-08-07T14:30:30;1.30;;;0.90;;
16228;SDS011;8222;51.462;12.630;2022-08-07T14:32:58;0.93;;;0.80;;
16228;SDS011;8222;51.462;12.630;2022-08-07T14:35:27;0.80;;;0.80;;
16228;SDS011;8222;51.462;12.630;2022-08-07T14:37:55;0.70;;;0.70;;
16228;SDS011;8222;51.462;12.630;2022-08-07T14:40:23;0.90;;;0.70;;
16228;SDS011;8222;51.462;12.630;2022-08-07T14:45:42;1.63;;;0.68;;
16228;SDS011;8222;51.462;12.630;2022-08-07T14:48:12;0.80;;;0.80;;
16228;SDS011;8222;51.462;12.630;2022-08-07T14:50:43;2.33;;;0.63;;
16228;SDS011;8222;51.462;12.630;2022-08-07T14:53:12;0.70;;;0.70;;
16228;SDS011;8222;51.462;12.630;2022-08-07T14:55:40;1.02;;;0.90;;
16228;SDS011;8222;51.462;12.630;2022-08-07T14:58:08;0.70;;;0.70;;
16228;SDS011;8222;51.462;12.630;2022-08-07T15:00:35;0.75;;;0.75;;
16228;SDS011;8222;51.462;12.630;2022-08-07T15:03:04;1.60;;;0.98;;
16228;SDS011;8222;51.462;12.630;2022-08-07T15:05:33;0.80;;;0.68;;
16228;SDS011;8222;51.462;12.630;2022-08-07T15:07:59;0.85;;;0.85;;
16228;SDS011;8222;51.462;12.630;2022-08-07T15:10:30;0.73;;;0.70;;
16228;SDS011;8222;51.462;12.630;2022-08-07T15:13:03;0.70;;;0.70;;
16228;SDS011;8222;51.462;12.630;2022-08-07T15:15:36;1.63;;;0.77;;
16228;SDS011;8222;51.462;12.630;2022-08-07T15:18:09;0.90;;;0.90;;
16228;SDS011;8222;51.462;12.630;2022-08-07T15:20:37;0.70;;;0.70;;
16228;SDS011;8222;51.462;12.630;2022-08-07T15:23:06;0.73;;;0.73;;
16228;SDS011;8222;51.462;12.630;2022-08-07T15:25:37;0.80;;;0.80;;
16228;SDS011;8222;51.462;12.630;2022-08-07T15:28:05;1.30;;;0.80;;
16228;SDS011;8222;51.462;12.630;2022-08-07T15:30:33;1.02;;;0.90;;
16228;SDS011;8222;51.462;12.630;2022-08-07T15:33:01;1.00;;;0.80;;
16228;SDS011;8222;51.462;12.630;2022-08-07T15:35:28;0.80;;;0.80;;
16228;SDS011;8222;51.462;12.630;2022-08-07T15:37:57;0.70;;;0.70;;
16228;SDS011;8222;51.462;12.630;2022-08-07T15:40:26;0.80;;;0.70;;
16228;SDS011;8222;51.462;12.630;2022-08-07T15:42:55;1.40;;;0.90;;
16228;SDS011;8222;51.462;12.630;2022-08-07T15:45:40;0.70;;;0.70;;
16228;SDS011;8222;51.462;12.630;2022-08-07T15:50:39;0.80;;;0.80;;
16228;SDS011;8222;51.462;12.630;2022-08-07T15:53:13;1.20;;;1.10;;
16228;SDS011;8222;51.462;12.630;2022-08-07T15:55:43;0.93;;;0.82;;
16228;SDS011;8222;51.462;12.630;2022-08-07T15:58:12;0.68;;;0.60;;
16228;SDS011;8222;51.462;12.630;2022-08-07T16:00:40;0.80;;;0.80;;
16228;SDS011;8222;51.462;12.630;2022-08-07T16:03:13;0.90;;;0.80;;
16228;SDS011;8222;51.462;12.630;2022-08-07T16:05:45;2.10;;;0.90;;
16228;SDS011;8222;51.462;12.630;2022-08-07T16:08:16;1.30;;;0.95;;
16228;SDS011;8222;51.462;12.630;2022-08-07T16:10:47;0.80;;;0.80;;
16228;SDS011;8222;51.462;12.630;2022-08-07T16:13:26;1.20;;;0.77;;
16228;SDS011;8222;51.462;12.630;2022-08-07T16:21:46;1.42;;;0.70;;
16228;SDS011;8222;51.462;12.630;2022-08-07T16:24:26;1.20;;;0.80;;
16228;SDS011;8222;51.462;12.630;2022-08-07T16:32:38;0.70;;;0.70;;
16228;SDS011;8222;51.462;12.630;2022-08-07T16:55:40;1.35;;;0.82;;
16228;SDS011;8222;51.462;12.630;2022-08-07T17:14:41;0.80;;;0.80;;
16228;SDS011;8222;51.462;12.630;2022-08-07T17:17:13;1.00;;;0.63;;
16228;SDS011;8222;51.462;12.630;2022-08-07T17:19:46;0.90;;;0.70;;
16228;SDS011;8222;51.462;12.630;2022-08-07T17:22:18;0.73;;;0.73;;
16228;SDS011;8222;51.462;12.630;2022-08-07T17:30:41;0.80;;;0.80;;
16228;SDS011;8222;51.462;12.630;2022-08-07T17:33:21;0.82;;;0.75;;
16228;SDS011;8222;51.462;12.630;2022-08-07T17:41:08;0.98;;;0.70;;
16228;SDS011;8222;51.462;12.630;2022-08-07T17:44:08;1.10;;;0.80;;
16228;SDS011;8222;51.462;12.630;2022-08-07T17:49:34;0.70;;;0.70;;
16228;SDS011;8222;51.462;12.630;2022-08-07T17:52:07;1.02;;;0.90;;
16228;SDS011;8222;51.462;12.630;2022-08-07T18:00:02;1.00;;;0.90;;
16228;SDS011;8222;51.462;12.630;2022-08-07T18:05:27;0.90;;;0.80;;
16228;SDS011;8222;51.462;12.630;2022-08-07T18:08:02;0.80;;;0.80;;
16228;SDS011;8222;51.462;12.630;2022-08-07T18:10:40;1.10;;;0.82;;
16228;SDS011;8222;51.462;12.630;2022-08-07T18:13:17;1.25;;;0.82;;
16228;SDS011;8222;51.462;12.630;2022-08-07T18:16:11;1.20;;;0.80;;
16228;SDS011;8222;51.462;12.630;2022-08-07T18:18:49;0.88;;;0.88;;
16228;SDS011;8222;51.462;12.630;2022-08-07T18:21:21;0.90;;;0.80;;
16228;SDS011;8222;51.462;12.630;2022-08-07T18:29:46;4.20;;;0.88;;
16228;SDS011;8222;51.462;12.630;2022-08-07T18:41:43;0.60;;;0.60;;
16228;SDS011;8222;51.462;12.630;2022-08-07T18:44:25;1.13;;;0.90;;
16228;SDS011;8222;51.462;12.630;2022-08-07T18:49:59;1.02;;;0.98;;
16228;SDS011;8222;51.462;12.630;2022-08-07T19:00:37;1.67;;;0.85;;
16228;SDS011;8222;51.462;12.630;2022-08-07T19:03:19;0.80;;;0.80;;
16228;SDS011;8222;51.462;12.630;2022-08-07T19:06:08;0.85;;;0.80;;
16228;SDS011;8222;51.462;12.630;2022-08-07T19:14:13;1.40;;;1.20;;
16228;SDS011;8222;51.462;12.630;2022-08-07T19:16:49;1.67;;;1.20;;
16228;SDS011;8222;51.462;12.630;2022-08-07T19:24:38;1.95;;;1.20;;
16228;SDS011;8222;51.462;12.630;2022-08-07T19:27:10;1.15;;;1.05;;
16228;SDS011;8222;51.462;12.630;2022-08-07T19:29:41;2.30;;;1.30;;
16228;SDS011;8222;51.462;12.630;2022-08-07T19:32:09;2.72;;;1.15;;
16228;SDS011;8222;51.462;12.630;2022-08-07T19:34:47;1.35;;;0.95;;
16228;SDS011;8222;51.462;12.630;2022-08-07T19:37:19;0.90;;;0.90;;
16228;SDS011;8222;51.462;12.630;2022-08-07T19:39:46;1.13;;;0.98;;
16228;SDS011;8222;51.462;12.630;2022-08-07T19:42:19;1.25;;;1.15;;
16228;SDS011;8222;51.462;12.630;2022-08-07T19:44:45;0.90;;;0.90;;
16228;SDS011;8222;51.462;12.630;2022-08-07T19:47:15;1.70;;;0.97;;
16228;SDS011;8222;51.462;12.630;2022-08-07T19:49:44;0.98;;;0.88;;
16228;SDS011;8222;51.462;12.630;2022-08-07T19:52:15;1.05;;;0.95;;
16228;SDS011;8222;51.462;12.630;2022-08-07T19:54:43;1.00;;;0.95;;
16228;SDS011;8222;51.462;12.630;2022-08-07T19:57:20;1.30;;;0.90;;